Página principal
METAR-TAF:

METAR-TAF

Aeroportos :

Aeroporto Internacional de Sanya Phoenix

Sanya, China

latitude: 18-18N, longitude: 109-24E, altura: 27 m

Observação actual do tempo

O boletim foi feito há 51 minutos, às 06:00 UTC
Vento 8 kt de sul, variando entre sudeste e sudoeste
Temperatura 27°C
Humidade 66%
Pressão 1015 hPa
Visibilidade 10 km ou mais
sem nuvens abaixo de 1500 metros e sem cumulonimbus

METAR: ZJSY 230600Z 18004MPS 140V230 CAVOK 27/20 Q1015 NOSIG

Hora: 14:51 (06:51 UTC)

Previsão

O boletim foi feito há 3 horas e 50 minutos, às 03:01 UTC
Previsão válida de 23 às 06 UTC a 24 às 06 UTC
Vento 8 kt de este
Visibilidade 10 km ou mais
Poucas nuvensa uma altura de 2000 ft
Nuvens dispersasa uma altura de 4000 ft

TAF: ZJSY 230301Z 2306/2406 10004MPS 9999 FEW020 SCT040 TX29/2306Z TN20/2321Z

Observações e previsões do tempo de mais de 4000 aeroportos (mensagens METAR e TAF).

As estações disponíveis são os pontos amarelos e vermelhos sobre o mapa.

Mova o rato sobre o mapa para ver o nome da estação.

Depois clique no ponto para visualizar as observações e previsões meteorológicas.

Para alterar o mapa : clique nos botões verdes com uma cruz preta para aumentar o zoom; no botão verde com uma pitada de zoom; ou nas setas verdes para mapas adjacentes.


METAR-TAF: